| time (UTC) | temp C | wind direction | speed KPH | gust KPH | rain 1hr cm | rain 24hr cm | rain mn cm | humidity % | barometer mb |
| 20260507230502 | 12 | 110 | 17.7 | 0.0 | 0.00 | 0.00 | 0.00 | 77 | 1014.0 |
| 20260507223502 | 12 | 110 | 20.9 | 0.0 | 0.00 | 0.00 | 0.00 | 77 | 1014.0 |
| 20260507220502 | 12 | 120 | 17.7 | 0.0 | 0.00 | 0.00 | 0.00 | 72 | 1014.0 |
| 20260507213503 | 12 | 120 | 20.9 | 0.0 | 0.00 | 0.00 | 0.00 | 72 | 1014.0 |
| 20260507210503 | 13 | 120 | 20.9 | 0.0 | 0.00 | 0.00 | 0.00 | 67 | 1014.0 |
| 20260507203502 | 13 | 120 | 20.9 | 0.0 | 0.00 | 0.00 | 0.00 | 67 | 1014.0 |
| 20260507200502 | 16 | 120 | 20.9 | 0.0 | 0.00 | 0.00 | 0.00 | 63 | 1014.0 |
| 20260507193502 | 16 | 130 | 25.7 | 0.0 | 0.00 | 0.00 | 0.00 | 63 | 1014.0 |
| 20260507190503 | 17 | 120 | 24.1 | 0.0 | 0.00 | 0.00 | 0.00 | 59 | 1014.0 |
| 20260507183503 | 17 | 110 | 22.5 | 0.0 | 0.00 | 0.00 | 0.00 | 56 | 1014.0 |
| 20260507180502 | 18 | 140 | 20.9 | 0.0 | 0.00 | 0.00 | 0.00 | 56 | 1014.0 |
| 20260507173502 | 20 | 140 | 20.9 | 0.0 | 0.00 | 0.00 | 0.00 | 53 | 1014.0 |
| 20260507170502 | 21 | 150 | 20.9 | 0.0 | 0.00 | 0.00 | 0.00 | 50 | 1013.0 |
| 20260507163502 | 21 | 150 | 22.5 | 0.0 | 0.00 | 0.00 | 0.00 | 46 | 1013.0 |
| 20260507160503 | 22 | 150 | 25.7 | 0.0 | 0.00 | 0.00 | 0.00 | 44 | 1013.0 |
| 20260507153501 | 22 | 150 | 27.4 | 0.0 | 0.00 | 0.00 | 0.00 | 41 | 1013.0 |
| 20260507150502 | 22 | 140 | 27.4 | 0.0 | 0.00 | 0.00 | 0.00 | 38 | 1013.0 |
| 20260507143503 | 22 | 150 | 25.7 | 0.0 | 0.00 | 0.00 | 0.00 | 41 | 1014.0 |
| 20260507140502 | 23 | 150 | 27.4 | 0.0 | 0.00 | 0.00 | 0.00 | 34 | 1014.0 |
| 20260507133503 | 23 | 150 | 25.7 | 0.0 | 0.00 | 0.00 | 0.00 | 34 | 1014.0 |
| 20260507130502 | 23 | 150 | 27.4 | 0.0 | 0.00 | 0.00 | 0.00 | ||
| 20260507123502 | 23 | 150 | 24.1 | 0.0 | 0.00 | 0.00 | 0.00 | 34 | 1014.0 |
| 20260507120502 | 23 | 140 | 27.4 | 0.0 | 0.00 | 0.00 | 0.00 | 34 | 1015.0 |
| 20260507113502 | 23 | 160 | 22.5 | 0.0 | 0.00 | 0.00 | 0.00 | 31 | 1015.0 |
| 20260507110502 | 23 | 150 | 25.7 | 0.0 | 0.00 | 0.00 | 0.00 | 31 | 1015.0 |
| 20260507103503 | 23 | 160 | 20.9 | 0.0 | 0.00 | 0.00 | 0.00 | 31 | 1015.0 |
| 20260507100502 | 22 | 160 | 22.5 | 0.0 | 0.00 | 0.00 | 0.00 | 31 | 1015.0 |
| 20260507093502 | 22 | 170 | 16.1 | 0.0 | 0.00 | 0.00 | 0.00 | 31 | 1015.0 |
| 20260507090502 | 22 | 150 | 22.5 | 0.0 | 0.00 | 0.00 | 0.00 | 31 | 1015.0 |
| 20260507083502 | 22 | 150 | 17.7 | 0.0 | 0.00 | 0.00 | 0.00 | 33 | 1015.0 |
| 20260507080503 | 22 | 160 | 16.1 | 0.0 | 0.00 | 0.00 | 0.00 | 33 | 1016.0 |
| 20260507073503 | 21 | 150 | 17.7 | 0.0 | 0.00 | 0.00 | 0.00 | 35 | 1016.0 |
| 20260507070502 | 18 | 130 | 16.1 | 0.0 | 0.00 | 0.00 | 0.00 | 46 | 1016.0 |
| 20260507063503 | 17 | 120 | 17.7 | 0.0 | 0.00 | 0.00 | 0.00 | 52 | 1016.0 |
| 20260507060501 | 16 | 100 | 20.9 | 0.0 | 0.00 | 0.00 | 0.00 | 55 | 1016.0 |
| 20260507053502 | 15 | 110 | 20.9 | 0.0 | 0.00 | 0.00 | 0.00 | 59 | 1016.0 |
| 20260507050502 | 12 | 110 | 20.9 | 0.0 | 0.00 | 0.00 | 0.00 | 63 | 1015.0 |
| 20260507043502 | 12 | 110 | 17.7 | 0.0 | 0.00 | 0.00 | 0.00 | 67 | 1015.0 |
| 20260507040502 | 12 | 100 | 14.5 | 0.0 | 0.00 | 0.00 | 0.00 | 67 | 1015.0 |
| 20260507033501 | 11 | 90 | 14.5 | 0.0 | 0.00 | 0.00 | 0.00 | 67 | 1015.0 |
| 20260507030503 | 10 | 100 | 12.9 | 0.0 | 0.00 | 0.00 | 0.00 | 71 | 1015.0 |
| 20260507023502 | 10 | 90 | 12.9 | 0.0 | 0.00 | 0.00 | 0.00 | 71 | 1015.0 |
| 20260507020502 | 11 | 90 | 12.9 | 0.0 | 0.00 | 0.00 | 0.00 | 67 | 1014.0 |
| 20260507013502 | 12 | 110 | 14.5 | 0.0 | 0.00 | 0.00 | 0.00 | 55 | 1014.0 |
| 20260507010503 | 13 | 130 | 14.5 | 0.0 | 0.00 | 0.00 | 0.00 | 48 | 1014.0 |
| 20260507003502 | 13 | 140 | 14.5 | 0.0 | 0.00 | 0.00 | 0.00 | 48 | 1015.0 |
| 20260507000503 | 13 | 150 | 12.9 | 0.0 | 0.00 | 0.00 | 0.00 | 48 | 1015.0 |
| 20260506233503 | 15 | 160 | 12.9 | 0.0 | 0.00 | 0.00 | 0.00 | 45 | 1015.0 |